createdAt,value
2022-09-05T00:00:57.145Z,12
2022-09-05T00:01:56.969Z,12
2022-09-05T00:02:56.826Z,12.1
2022-09-05T00:03:57.114Z,12.1
2022-09-05T00:04:56.486Z,12
2022-09-05T00:06:02.180Z,12
2022-09-05T00:06:56.476Z,11.9
2022-09-05T00:07:59.970Z,11.9
2022-09-05T00:08:57.204Z,11.9
2022-09-05T00:09:56.734Z,12
2022-09-05T00:11:42.698Z,12
2022-09-05T00:11:56.101Z,11.9
2022-09-05T00:13:07.687Z,12
2022-09-05T00:13:56.483Z,12
2022-09-05T00:15:15.870Z,11.9
2022-09-05T00:15:57.178Z,11.9
2022-09-05T00:16:56.460Z,11.9
2022-09-05T00:18:39.768Z,11.9
2022-09-05T00:24:17.162Z,12
2022-09-05T00:24:20.463Z,12
2022-09-05T00:24:25.303Z,12
2022-09-05T00:24:30.904Z,12.1
2022-09-05T00:24:34.360Z,12
2022-09-05T00:24:37.402Z,11.9
2022-09-05T00:25:57.175Z,12
2022-09-05T00:26:56.475Z,11.9
2022-09-05T00:27:56.556Z,12
2022-09-05T00:28:56.467Z,12.1
2022-09-05T00:31:08.640Z,12.1
2022-09-05T00:31:51.998Z,11.9
2022-09-05T00:31:57.451Z,12
2022-09-05T00:32:56.492Z,12
2022-09-05T00:33:56.476Z,12
2022-09-05T00:34:56.583Z,11.9
2022-09-05T00:35:56.478Z,12
2022-09-05T00:36:56.485Z,12
2022-09-05T00:37:56.493Z,11.9
2022-09-05T00:38:56.987Z,11.9
2022-09-05T00:40:06.727Z,12
2022-09-05T00:40:56.477Z,12
2022-09-05T00:41:55.526Z,11.9
2022-09-05T00:42:55.561Z,11.9
2022-09-05T00:43:56.473Z,11.9
2022-09-05T00:44:56.504Z,11.9
2022-09-05T00:45:56.463Z,11.9
2022-09-05T00:46:56.550Z,12
2022-09-05T00:47:57.047Z,12
2022-09-05T00:48:56.497Z,12
2022-09-05T00:49:56.481Z,12
2022-09-05T00:50:56.902Z,11.9
2022-09-05T00:51:56.483Z,12
2022-09-05T00:53:06.805Z,11.9
2022-09-05T00:53:56.514Z,11.9
2022-09-05T00:54:56.462Z,12
2022-09-05T00:55:58.849Z,12.1
2022-09-05T00:56:57.131Z,12
2022-09-05T00:57:56.473Z,12
2022-09-05T00:58:56.485Z,12
2022-09-05T00:59:59.097Z,11.8
2022-09-05T01:00:56.548Z,11.8
2022-09-05T01:01:57.322Z,11.9
2022-09-05T01:02:56.610Z,11.7
2022-09-05T01:03:56.959Z,11.8
2022-09-05T01:04:57.122Z,11.8
2022-09-05T01:05:56.491Z,11.8
2022-09-05T01:06:56.478Z,11.8
2022-09-05T01:07:56.480Z,11.9
2022-09-05T01:08:56.489Z,11.9
2022-09-05T01:09:56.555Z,11.9
2022-09-05T01:10:56.573Z,12
2022-09-05T01:11:55.566Z,11.8
2022-09-05T01:12:56.475Z,11.9
2022-09-05T01:13:56.477Z,11.9
2022-09-05T01:14:57.195Z,11.8
2022-09-05T01:15:56.780Z,11.9
2022-09-05T01:16:56.471Z,12
2022-09-05T01:17:56.505Z,11.8
2022-09-05T01:18:56.498Z,11.9
2022-09-05T01:19:57.453Z,11.8
2022-09-05T01:20:56.482Z,12
2022-09-05T01:21:56.562Z,11.9
2022-09-05T01:22:56.670Z,11.9
2022-09-05T01:23:56.569Z,11.9
2022-09-05T01:24:56.489Z,11.9
2022-09-05T01:25:57.088Z,11.8
2022-09-05T01:26:57.195Z,11.9
2022-09-05T01:29:13.716Z,11.8
2022-09-05T01:29:18.266Z,11.8
2022-09-05T01:29:56.478Z,12
2022-09-05T01:30:56.531Z,11.9
2022-09-05T01:31:56.492Z,11.9
2022-09-05T01:33:00.843Z,11.9
2022-09-05T01:33:56.536Z,11.8
2022-09-05T01:34:56.494Z,11.8
2022-09-05T01:36:03.853Z,11.8
2022-09-05T01:36:56.872Z,11.9
2022-09-05T01:37:56.491Z,11.9
2022-09-05T01:39:55.233Z,12
2022-09-05T01:40:11.721Z,11.9
2022-09-05T01:41:14.124Z,12
2022-09-05T01:41:55.730Z,11.9
2022-09-05T01:42:56.485Z,11.9
2022-09-05T01:43:56.516Z,11.9
2022-09-05T01:44:56.745Z,11.9
2022-09-05T01:45:56.993Z,12
2022-09-05T01:46:56.522Z,11.9
2022-09-05T01:47:56.509Z,11.9
2022-09-05T01:48:56.632Z,11.9
2022-09-05T01:50:00.829Z,11.8
2022-09-05T01:50:56.495Z,11.7
2022-09-05T01:51:56.504Z,12
2022-09-05T01:53:02.351Z,11.9
2022-09-05T01:53:57.202Z,11.9
2022-09-05T01:54:56.492Z,11.8
2022-09-05T01:56:04.961Z,11.9
2022-09-05T01:56:56.515Z,11.9
2022-09-05T01:57:57.211Z,12
2022-09-05T01:58:56.497Z,12
2022-09-05T01:59:56.584Z,11.9
2022-09-05T02:00:57.124Z,11.9
2022-09-05T02:01:56.545Z,11.9
2022-09-05T02:02:56.644Z,11.9
2022-09-05T02:03:56.502Z,12
2022-09-05T02:04:56.509Z,12
2022-09-05T02:05:56.514Z,12
2022-09-05T02:06:57.498Z,12.1
2022-09-05T02:07:56.543Z,11.9
2022-09-05T02:08:56.497Z,11.9
2022-09-05T02:09:56.881Z,12
2022-09-05T02:10:56.021Z,11.9
2022-09-05T02:11:56.108Z,11.9
2022-09-05T02:13:03.106Z,11.9
2022-09-05T02:13:57.166Z,12
2022-09-05T02:14:56.783Z,12
2022-09-05T02:15:59.757Z,12
2022-09-05T02:16:56.535Z,11.9
2022-09-05T02:17:56.679Z,11.9
2022-09-05T02:18:56.516Z,11.9
2022-09-05T02:19:56.983Z,11.9
2022-09-05T02:20:56.508Z,11.9
2022-09-05T02:21:57.553Z,11.9
2022-09-05T02:22:56.552Z,12
2022-09-05T02:23:57.093Z,12
2022-09-05T02:25:30.518Z,11.8
2022-09-05T02:26:01.422Z,11.9
2022-09-05T02:26:56.510Z,12
2022-09-05T02:28:05.707Z,12
2022-09-05T02:28:56.653Z,11.9
2022-09-05T02:29:56.504Z,12.1
2022-09-05T02:30:59.197Z,12
2022-09-05T02:31:56.592Z,11.9
2022-09-05T02:32:56.733Z,11.9
2022-09-05T02:34:02.025Z,11.9
2022-09-05T02:34:56.511Z,11.9
2022-09-05T02:35:57.227Z,11.9
2022-09-05T02:36:56.486Z,11.9
2022-09-05T02:38:30.148Z,11.9
2022-09-05T02:45:01.787Z,11.9
2022-09-05T02:45:07.356Z,12
2022-09-05T02:45:07.435Z,11.9
2022-09-05T02:45:07.952Z,11.8
2022-09-05T02:45:08.326Z,11.9
2022-09-05T02:45:17.725Z,12.1
2022-09-05T02:45:20.005Z,11.9
2022-09-05T02:45:56.811Z,12
2022-09-05T02:46:56.671Z,12
2022-09-05T02:47:56.545Z,11.9
2022-09-05T02:48:56.505Z,11.9
2022-09-05T02:53:54.147Z,12
2022-09-05T02:53:59.148Z,11.9
2022-09-05T02:57:30.217Z,11.9
2022-09-05T02:57:33.106Z,11.9
2022-09-05T02:57:34.570Z,11.9
2022-09-05T02:57:41.150Z,11.9
2022-09-05T02:57:46.255Z,11.8
2022-09-05T02:57:47.029Z,11.9
2022-09-05T02:58:07.696Z,11.9
2022-09-05T02:59:09.495Z,11.8
2022-09-05T02:59:57.165Z,11.9
2022-09-05T03:00:56.547Z,11.9
2022-09-05T03:01:56.505Z,11.8
2022-09-05T03:02:56.550Z,11.8
2022-09-05T03:03:56.531Z,11.8
2022-09-05T03:05:04.663Z,11.9
2022-09-05T03:05:56.501Z,11.9
2022-09-05T03:06:56.617Z,11.8
2022-09-05T03:07:56.514Z,11.8
2022-09-05T03:08:57.071Z,11.8
2022-09-05T03:09:57.127Z,11.8
2022-09-05T03:10:56.511Z,11.8
2022-09-05T03:11:56.527Z,11.9
2022-09-05T03:12:56.774Z,11.8
2022-09-05T03:13:56.836Z,11.9
2022-09-05T03:14:57.534Z,11.8
2022-09-05T03:15:59.329Z,11.8
2022-09-05T03:16:56.577Z,11.9
2022-09-05T03:17:56.526Z,11.9
2022-09-05T03:18:56.514Z,11.8
2022-09-05T03:19:56.549Z,11.9
2022-09-05T03:21:09.295Z,11.9
2022-09-05T03:21:56.518Z,11.9
2022-09-05T03:22:56.948Z,11.8
2022-09-05T03:23:56.521Z,11.9
2022-09-05T03:24:57.342Z,11.8
2022-09-05T03:25:56.540Z,11.8
2022-09-05T03:26:56.568Z,11.8
2022-09-05T03:27:56.937Z,11.8
2022-09-05T03:28:56.927Z,11.8
2022-09-05T03:29:58.651Z,11.8
2022-09-05T03:30:56.915Z,11.8
2022-09-05T03:31:56.511Z,11.8
2022-09-05T03:32:57.015Z,11.7
2022-09-05T03:33:57.249Z,11.8
2022-09-05T03:34:56.532Z,11.8
2022-09-05T03:35:57.075Z,11.8
2022-09-05T03:36:56.541Z,11.8
2022-09-05T03:37:56.518Z,11.7
2022-09-05T03:38:56.527Z,11.8
2022-09-05T03:39:56.634Z,11.8
2022-09-05T03:40:56.931Z,11.8
2022-09-05T03:41:55.612Z,11.7
2022-09-05T03:42:57.059Z,11.8
2022-09-05T03:43:56.867Z,11.7
2022-09-05T03:44:56.513Z,11.7
2022-09-05T03:45:56.575Z,11.7
2022-09-05T03:46:56.578Z,11.6
2022-09-05T03:48:02.218Z,11.7
2022-09-05T03:48:58.085Z,11.8
2022-09-05T03:54:17.132Z,11.7
2022-09-05T03:57:05.714Z,11.8
2022-09-05T03:57:10.995Z,11.8
2022-09-05T03:57:11.161Z,11.7
2022-09-05T03:57:12.202Z,11.7
2022-09-05T03:57:12.478Z,11.8
2022-09-05T03:57:18.915Z,11.8
2022-09-05T03:57:23.975Z,11.7
2022-09-05T03:58:02.191Z,11.8
2022-09-05T03:58:57.427Z,11.7
2022-09-05T03:59:56.519Z,11.8
2022-09-05T04:01:10.709Z,11.8
2022-09-05T04:04:31.794Z,11.8
2022-09-05T04:08:10.751Z,11.7
2022-09-05T04:08:11.269Z,11.9
2022-09-05T04:08:16.191Z,11.9
2022-09-05T04:08:18.067Z,11.8
2022-09-05T04:08:19.557Z,11.8
2022-09-05T04:08:56.673Z,11.8
2022-09-05T04:09:56.661Z,11.7
2022-09-05T04:10:56.709Z,11.8
2022-09-05T04:11:55.591Z,11.7
2022-09-05T04:12:56.518Z,11.7
2022-09-05T04:13:56.598Z,11.6
2022-09-05T04:14:57.002Z,11.7
2022-09-05T04:15:56.548Z,11.7
2022-09-05T04:16:56.561Z,11.7
2022-09-05T04:18:04.048Z,11.7
2022-09-05T04:18:56.540Z,11.8
2022-09-05T04:19:57.268Z,11.8
2022-09-05T04:20:56.887Z,11.7
2022-09-05T04:21:56.526Z,11.8
2022-09-05T04:22:56.607Z,11.6
2022-09-05T04:26:11.752Z,11.7
2022-09-05T04:26:56.525Z,11.6
2022-09-05T04:27:57.541Z,11.6
2022-09-05T04:28:57.437Z,11.7
2022-09-05T04:29:56.537Z,11.7
2022-09-05T04:30:57.163Z,11.6
2022-09-05T04:32:18.413Z,11.7
2022-09-05T04:32:56.542Z,11.6
2022-09-05T04:33:56.536Z,11.7
2022-09-05T04:34:56.541Z,11.6
2022-09-05T04:35:56.533Z,11.7
2022-09-05T04:36:56.536Z,11.6
2022-09-05T04:37:56.891Z,11.7
2022-09-05T04:38:57.098Z,11.7
2022-09-05T04:39:56.808Z,11.6
2022-09-05T04:40:56.126Z,11.7
2022-09-05T04:41:56.527Z,11.6
2022-09-05T04:42:57.205Z,11.6
2022-09-05T04:43:57.000Z,11.6
2022-09-05T04:44:56.952Z,11.6
2022-09-05T04:45:56.602Z,11.7
2022-09-05T04:46:57.280Z,11.8
2022-09-05T04:47:57.307Z,11.7
2022-09-05T04:48:56.546Z,11.7
2022-09-05T04:49:56.534Z,11.7
2022-09-05T04:50:56.983Z,11.6
2022-09-05T04:52:00.717Z,11.5
2022-09-05T04:52:56.923Z,11.7
2022-09-05T04:53:56.529Z,11.8
2022-09-05T04:54:56.541Z,11.6
2022-09-05T04:55:55.607Z,11.5
2022-09-05T04:56:56.533Z,11.8
2022-09-05T04:57:56.538Z,11.6
2022-09-05T05:01:06.886Z,11.6
2022-09-05T05:05:01.068Z,11.6
2022-09-05T05:06:02.138Z,11.6
2022-09-05T05:06:08.726Z,11.6
2022-09-05T05:06:11.398Z,11.6
2022-09-05T05:06:13.105Z,11.6
2022-09-05T05:06:13.325Z,11.7
2022-09-05T05:06:13.901Z,11.6
2022-09-05T05:06:56.610Z,11.6
2022-09-05T05:07:56.871Z,11.6
2022-09-05T05:08:57.073Z,11.7
2022-09-05T05:10:52.691Z,11.5
2022-09-05T05:14:44.459Z,11.6
2022-09-05T05:17:55.806Z,11.7
2022-09-05T05:17:57.193Z,11.6
2022-09-05T05:17:57.745Z,11.6
2022-09-05T05:18:07.956Z,11.7
2022-09-05T05:20:40.153Z,11.7
2022-09-05T05:20:56.603Z,11.6
2022-09-05T05:21:56.546Z,11.6
2022-09-05T05:22:56.597Z,11.6
2022-09-05T05:23:57.230Z,11.6
2022-09-05T05:24:56.561Z,11.7
2022-09-05T05:25:56.538Z,11.6
2022-09-05T05:26:57.411Z,11.6
2022-09-05T05:27:57.009Z,11.6
2022-09-05T05:28:56.964Z,11.6
2022-09-05T05:29:56.724Z,11.6
2022-09-05T05:31:01.218Z,11.8
2022-09-05T05:31:56.611Z,11.7
2022-09-05T05:32:56.763Z,11.7
2022-09-05T05:33:56.811Z,11.6
2022-09-05T05:34:56.923Z,11.6
2022-09-05T05:35:57.076Z,11.6
2022-09-05T05:37:00.526Z,11.6
2022-09-05T05:37:56.538Z,11.7
2022-09-05T05:38:57.249Z,11.6
2022-09-05T05:39:57.026Z,11.6
2022-09-05T05:40:56.630Z,11.7
2022-09-05T05:41:56.549Z,11.7
2022-09-05T05:42:56.664Z,11.7
2022-09-05T05:43:56.556Z,11.7
2022-09-05T05:45:56.758Z,11.6
2022-09-05T05:46:56.551Z,11.7
2022-09-05T05:47:56.562Z,11.6
2022-09-05T05:48:57.027Z,11.7
2022-09-05T05:49:57.455Z,11.7
2022-09-05T05:50:56.566Z,11.6
2022-09-05T05:52:01.497Z,11.6
2022-09-05T05:52:56.573Z,11.6
2022-09-05T05:53:57.206Z,11.6
2022-09-05T05:55:48.932Z,11.5
2022-09-05T05:55:56.582Z,11.7
2022-09-05T05:56:56.550Z,11.7
2022-09-05T05:57:56.545Z,11.7
2022-09-05T05:58:56.549Z,11.7
2022-09-05T05:59:58.983Z,11.7
2022-09-05T06:00:56.599Z,11.7
2022-09-05T06:01:56.850Z,11.8
2022-09-05T06:03:16.058Z,11.8
2022-09-05T06:03:56.891Z,11.8
2022-09-05T06:04:58.722Z,11.8
2022-09-05T06:05:56.785Z,11.8
2022-09-05T06:09:51.345Z,11.9
2022-09-05T06:13:32.923Z,11.8
2022-09-05T06:14:42.781Z,11.8
2022-09-05T06:14:50.317Z,11.9
2022-09-05T06:14:54.846Z,11.9
2022-09-05T06:14:54.850Z,11.9
2022-09-05T06:14:58.566Z,11.9
2022-09-05T06:15:10.508Z,11.9
2022-09-05T06:15:57.317Z,11.9
2022-09-05T06:16:56.553Z,12
2022-09-05T06:17:56.551Z,11.9
2022-09-05T06:18:56.574Z,11.9
2022-09-05T06:20:09.651Z,11.9
2022-09-05T06:22:08.368Z,12
2022-09-05T06:22:08.969Z,12.1
2022-09-05T06:22:56.569Z,12
2022-09-05T06:23:56.562Z,12
2022-09-05T06:24:58.693Z,12.1
2022-09-05T06:25:56.548Z,12
2022-09-05T06:26:56.881Z,12.2
2022-09-05T06:28:17.371Z,12.1
2022-09-05T06:28:56.558Z,12.2
2022-09-05T06:29:56.558Z,12.3
2022-09-05T06:30:59.279Z,12.3
2022-09-05T06:31:56.603Z,12.3
2022-09-05T06:32:58.613Z,12.2
2022-09-05T06:33:56.550Z,12.3
2022-09-05T06:34:59.893Z,12.3
2022-09-05T06:36:01.200Z,12.3
2022-09-05T06:36:56.555Z,12.3
2022-09-05T06:37:56.994Z,12.3
2022-09-05T06:38:56.573Z,12.3
2022-09-05T06:39:56.611Z,12.5
2022-09-05T06:40:56.679Z,12.5
2022-09-05T06:41:57.053Z,12.4
2022-09-05T06:42:57.149Z,12.5
2022-09-05T06:43:56.565Z,12.4
2022-09-05T06:44:56.574Z,12.3
2022-09-05T06:45:58.637Z,12.2
2022-09-05T06:47:22.687Z,12.5
2022-09-05T06:47:56.851Z,12.4
2022-09-05T06:49:28.267Z,12.5
2022-09-05T06:49:56.643Z,12.6
2022-09-05T06:51:09.230Z,12.5
2022-09-05T06:52:28.958Z,12.4
2022-09-05T06:52:56.576Z,12.5
2022-09-05T06:53:56.575Z,12.4
2022-09-05T06:54:59.532Z,12.3
2022-09-05T06:55:56.568Z,12.6
2022-09-05T06:56:56.558Z,12.6
2022-09-05T06:57:56.708Z,12.5
2022-09-05T06:58:56.793Z,12.6
2022-09-05T06:59:56.567Z,12.4
2022-09-05T07:00:56.971Z,12.4
2022-09-05T07:02:00.210Z,12.5
2022-09-05T07:02:59.180Z,12.7
2022-09-05T07:03:57.054Z,12.7
2022-09-05T07:05:38.260Z,12.7
2022-09-05T07:07:56.726Z,12.7
2022-09-05T07:08:56.577Z,12.5
2022-09-05T07:09:55.655Z,12.7
2022-09-05T07:10:55.642Z,12.8
2022-09-05T07:11:57.232Z,12.9
2022-09-05T07:12:57.314Z,12.9
2022-09-05T07:13:56.999Z,12.5
2022-09-05T07:19:01.287Z,12.7
2022-09-05T07:19:57.261Z,12.2
2022-09-05T07:21:15.668Z,12.3
2022-09-05T07:21:56.715Z,12.3
2022-09-05T07:22:57.017Z,12.2
2022-09-05T07:24:06.140Z,12.3
2022-09-05T07:24:56.721Z,12.2
2022-09-05T07:25:56.653Z,12.3
2022-09-05T07:26:56.679Z,12.3
2022-09-05T07:28:29.572Z,12.3
2022-09-05T07:28:57.205Z,12.3
2022-09-05T07:30:01.643Z,12.3
2022-09-05T07:30:56.729Z,12.3
2022-09-05T07:31:57.138Z,12.3
2022-09-05T07:32:56.590Z,12.4
2022-09-05T07:33:57.180Z,12.9
2022-09-05T07:34:56.574Z,12.4
2022-09-05T07:35:56.761Z,12.3
2022-09-05T07:37:14.230Z,12.5
2022-09-05T07:37:57.024Z,12.3
2022-09-05T07:39:12.230Z,12.3
2022-09-05T07:39:56.923Z,13
2022-09-05T07:40:56.588Z,12.9
2022-09-05T07:41:56.611Z,12.5
2022-09-05T07:43:09.308Z,12.4
2022-09-05T07:43:57.192Z,12.3
2022-09-05T07:44:55.657Z,12.7
2022-09-05T07:45:57.087Z,12.4
2022-09-05T07:46:56.593Z,12.4
2022-09-05T07:47:56.580Z,12.4
2022-09-05T07:48:56.594Z,12.4
2022-09-05T07:50:54.592Z,12.4
2022-09-05T07:55:56.140Z,12.5
2022-09-05T07:56:47.762Z,12.6
2022-09-05T07:56:55.104Z,12.4
2022-09-05T07:57:04.796Z,12.7
2022-09-05T07:57:06.157Z,12.5
2022-09-05T07:57:10.216Z,13
2022-09-05T07:57:25.424Z,12.8
2022-09-05T07:57:56.595Z,12.5
2022-09-05T07:58:56.603Z,12.4
2022-09-05T07:59:56.594Z,12.5
2022-09-05T08:00:56.674Z,12.5
2022-09-05T08:01:56.592Z,12.5
2022-09-05T08:02:57.365Z,12.6
2022-09-05T08:03:57.172Z,12.6
2022-09-05T08:04:57.428Z,12.5
2022-09-05T08:05:56.706Z,12.5
2022-09-05T08:07:47.249Z,12.7
2022-09-05T08:07:56.619Z,12.6
2022-09-05T08:09:21.675Z,12.5
2022-09-05T08:10:09.462Z,12.6
2022-09-05T08:11:23.276Z,12.6
2022-09-05T08:12:01.026Z,12.6
2022-09-05T08:13:24.609Z,12.6
2022-09-05T08:14:40.623Z,12.5
2022-09-05T08:14:55.683Z,12.6
2022-09-05T08:16:15.239Z,12.6
2022-09-05T08:16:56.757Z,12.7
2022-09-05T08:17:56.652Z,12.6
2022-09-05T08:18:56.603Z,12.6
2022-09-05T08:19:57.903Z,12.5
2022-09-05T08:20:56.596Z,12.8
2022-09-05T08:21:56.609Z,12.7
2022-09-05T08:22:56.615Z,12.5
2022-09-05T08:23:56.606Z,12.6
2022-09-05T08:24:56.705Z,12.6
2022-09-05T08:25:57.900Z,12.6
2022-09-05T08:26:56.940Z,12.6
2022-09-05T08:27:56.676Z,12.5
2022-09-05T08:28:56.620Z,12.6
2022-09-05T08:30:24.761Z,12.6
2022-09-05T08:30:56.633Z,12.5
2022-09-05T08:31:56.697Z,12.5
2022-09-05T08:33:10.590Z,12.5
2022-09-05T08:34:57.044Z,12.8
2022-09-05T08:36:00.864Z,12.7
2022-09-05T08:36:57.093Z,12.6
2022-09-05T08:37:57.222Z,12.6
2022-09-05T08:38:56.621Z,12.6
2022-09-05T08:40:10.074Z,12.6
2022-09-05T08:40:56.604Z,13.1
2022-09-05T08:42:05.017Z,13
2022-09-05T08:43:36.637Z,12.9
2022-09-05T08:46:40.509Z,12.8
2022-09-05T08:46:40.813Z,12.6
2022-09-05T08:46:42.190Z,12.7
2022-09-05T08:47:56.851Z,12.8
2022-09-05T08:48:56.611Z,12.8
2022-09-05T08:49:57.165Z,12.6
2022-09-05T08:50:57.319Z,12.7
2022-09-05T08:51:56.609Z,12.7
2022-09-05T08:52:56.620Z,12.7
2022-09-05T08:53:57.225Z,12.7
2022-09-05T08:55:04.396Z,12.7
2022-09-05T08:55:56.608Z,12.6
2022-09-05T08:56:56.631Z,12.7
2022-09-05T08:57:56.605Z,12.7
2022-09-05T08:59:32.458Z,12.8
2022-09-05T09:00:18.486Z,12.7
2022-09-05T09:01:00.343Z,12.7
2022-09-05T09:02:45.118Z,12.7
2022-09-05T09:02:56.687Z,12.6
2022-09-05T09:03:57.043Z,12.7
2022-09-05T09:05:02.290Z,13
2022-09-05T09:06:12.536Z,12.9
2022-09-05T09:07:30.792Z,12.9
2022-09-05T09:07:56.627Z,12.8
2022-09-05T09:08:56.730Z,12.8
2022-09-05T09:10:57.588Z,12.9
2022-09-05T09:11:57.263Z,12.8
2022-09-05T09:12:57.023Z,12.8
2022-09-05T09:14:56.119Z,12.8
2022-09-05T09:15:56.651Z,12.8
2022-09-05T09:16:56.983Z,12.8
2022-09-05T09:17:56.636Z,13
2022-09-05T09:18:56.647Z,12.9
2022-09-05T09:19:56.623Z,12.9
2022-09-05T09:20:57.017Z,12.7
2022-09-05T09:21:56.625Z,12.7
2022-09-05T09:22:56.642Z,12.8
2022-09-05T09:23:57.059Z,12.9
2022-09-05T09:25:15.102Z,12.7
2022-09-05T09:25:56.797Z,12.8
2022-09-05T09:26:57.149Z,12.8
2022-09-05T09:28:48.667Z,12.8
2022-09-05T09:28:56.606Z,12.9
2022-09-05T09:29:56.630Z,12.9
2022-09-05T09:30:57.381Z,12.9
2022-09-05T09:31:56.675Z,12.9
2022-09-05T09:32:59.407Z,12.9
2022-09-05T09:33:56.653Z,12.8
2022-09-05T09:34:56.627Z,12.8
2022-09-05T09:35:57.423Z,12.8
2022-09-05T09:36:57.098Z,12.6
2022-09-05T09:38:56.714Z,12.8
2022-09-05T09:39:56.672Z,12.7
2022-09-05T09:41:02.603Z,13.1
2022-09-05T09:41:56.653Z,12.4
2022-09-05T09:42:56.620Z,12.7
2022-09-05T09:43:56.627Z,12.6
2022-09-05T09:44:56.218Z,12.6
2022-09-05T09:45:56.651Z,12.7
2022-09-05T09:46:57.126Z,10.7
2022-09-05T09:47:56.637Z,10.3
2022-09-05T09:48:56.648Z,11.2
2022-09-05T09:49:56.639Z,11.5
2022-09-05T09:50:59.326Z,11.7
2022-09-05T09:51:57.256Z,12
2022-09-05T09:52:56.901Z,12.1
2022-09-05T09:54:57.268Z,12.1
2022-09-05T09:55:56.652Z,12.3
2022-09-05T09:56:56.632Z,12.3
2022-09-05T09:57:56.644Z,12.3
2022-09-05T09:58:56.637Z,12.5
2022-09-05T09:59:57.032Z,12.8
2022-09-05T10:00:57.484Z,12
2022-09-05T10:01:59.601Z,11.6
2022-09-05T10:07:04.624Z,12.2
2022-09-05T10:10:34.136Z,12.3
2022-09-05T10:10:38.000Z,11.9
2022-09-05T10:10:39.284Z,12.2
2022-09-05T10:10:48.192Z,12.4
2022-09-05T10:10:49.217Z,12.2
2022-09-05T10:10:59.755Z,12.4
2022-09-05T10:11:21.564Z,12.3
2022-09-05T10:11:36.167Z,12.1
2022-09-05T10:11:57.527Z,11.3
2022-09-05T10:13:08.065Z,11.7
2022-09-05T10:13:56.780Z,12
2022-09-05T10:14:56.214Z,12.3
2022-09-05T10:15:56.669Z,12.2
2022-09-05T10:16:56.669Z,12.2
2022-09-05T10:17:56.838Z,12.4
2022-09-05T10:18:56.765Z,12.3
2022-09-05T10:20:12.459Z,12.4
2022-09-05T10:21:16.240Z,12.3
2022-09-05T10:22:56.648Z,12.3
2022-09-05T10:23:56.756Z,12.4
2022-09-05T10:24:58.784Z,12.3
2022-09-05T10:26:00.894Z,12.2
2022-09-05T10:26:56.789Z,12.2
2022-09-05T10:27:56.649Z,12.1
2022-09-05T10:28:57.909Z,12.2
2022-09-05T10:29:56.750Z,12
2022-09-05T10:33:22.687Z,11.9
2022-09-05T10:35:11.195Z,12.1
2022-09-05T10:35:11.472Z,11.7
2022-09-05T10:35:13.523Z,11.7
2022-09-05T10:35:15.252Z,11.6
2022-09-05T10:35:57.148Z,11.6
2022-09-05T10:36:56.650Z,11.5
2022-09-05T10:37:56.654Z,11.9
2022-09-05T10:38:56.658Z,12.1
2022-09-05T10:39:56.712Z,12
2022-09-05T10:41:22.562Z,12.3
2022-09-05T10:41:59.375Z,12
2022-09-05T10:43:00.705Z,12.2
2022-09-05T10:43:57.074Z,12.2
2022-09-05T10:44:55.722Z,12.1
2022-09-05T10:45:56.929Z,12
2022-09-05T10:46:57.402Z,11.8
2022-09-05T10:47:56.644Z,11.9
2022-09-05T10:48:57.087Z,11.9
2022-09-05T10:49:56.656Z,11.8
2022-09-05T10:50:56.739Z,12.1
2022-09-05T10:51:56.658Z,12
2022-09-05T10:52:57.025Z,11.6
2022-09-05T10:53:56.654Z,11.8
2022-09-05T10:55:13.964Z,11.7
2022-09-05T10:55:56.676Z,11.9
2022-09-05T10:56:56.663Z,12
2022-09-05T10:57:56.784Z,12
2022-09-05T11:00:56.452Z,11.8
2022-09-05T11:02:23.722Z,10.6
2022-09-05T11:02:24.033Z,11.1
2022-09-05T11:02:26.102Z,10.3
2022-09-05T11:02:57.653Z,10.8
2022-09-05T11:03:57.401Z,10.6
2022-09-05T11:04:57.462Z,10.5
2022-09-05T11:05:56.867Z,10.7
2022-09-05T11:06:57.293Z,10.7
2022-09-05T11:07:51.408Z,10.9
2022-09-05T11:08:56.666Z,11
2022-09-05T11:09:56.927Z,10.8
2022-09-05T11:10:56.664Z,11.6
2022-09-05T11:11:56.663Z,11.3
2022-09-05T11:12:57.322Z,11.6
2022-09-05T11:13:57.293Z,11.5
2022-09-05T11:14:55.984Z,11.1
2022-09-05T11:16:03.951Z,10.8
2022-09-05T11:16:56.673Z,10.6
2022-09-05T11:17:56.917Z,10.8
2022-09-05T11:18:57.409Z,11.3
2022-09-05T11:19:56.675Z,11.4
2022-09-05T11:20:56.713Z,11.4
2022-09-05T11:22:12.068Z,11.1
2022-09-05T11:22:56.677Z,11.3
2022-09-05T11:23:57.415Z,11.2
2022-09-05T11:24:56.686Z,11.5
2022-09-05T11:25:56.694Z,11.6
2022-09-05T11:27:23.740Z,11.7
2022-09-05T11:27:56.924Z,11.3
2022-09-05T11:29:00.356Z,10.6
2022-09-05T11:29:56.889Z,11.4
2022-09-05T11:30:57.321Z,11.6
2022-09-05T11:33:14.952Z,11.6
2022-09-05T11:39:17.204Z,11.3
2022-09-05T11:39:50.487Z,11.4
2022-09-05T11:39:54.773Z,11.5
2022-09-05T11:39:54.774Z,11.5
2022-09-05T11:39:55.184Z,11.6
2022-09-05T11:40:02.703Z,11.5
2022-09-05T11:40:06.899Z,11.3
2022-09-05T11:40:27.420Z,11
2022-09-05T11:41:07.974Z,11.3
2022-09-05T11:41:56.751Z,11.1
2022-09-05T11:42:57.277Z,11.1
2022-09-05T11:43:57.407Z,10.1
2022-09-05T11:44:55.747Z,11.1
2022-09-05T11:45:56.874Z,10.9
2022-09-05T11:46:56.893Z,10.9
2022-09-05T11:47:56.693Z,11.2
2022-09-05T11:48:56.715Z,11.4
2022-09-05T11:49:56.687Z,11.4
2022-09-05T11:50:56.695Z,11.2
2022-09-05T11:51:57.372Z,11.2
2022-09-05T11:52:56.764Z,10.9
2022-09-05T11:53:57.380Z,11.2
2022-09-05T11:54:56.682Z,11
2022-09-05T11:55:56.718Z,10.7
2022-09-05T11:57:00.791Z,11
2022-09-05T11:57:57.514Z,11.2
2022-09-05T11:58:56.732Z,11
2022-09-05T12:00:28.162Z,11
2022-09-05T12:01:43.441Z,11
2022-09-05T12:01:56.685Z,11.3
2022-09-05T12:02:57.575Z,10.6
2022-09-05T12:03:59.107Z,11.1
2022-09-05T12:05:49.164Z,11
2022-09-05T12:05:59.174Z,10.7
2022-09-05T12:06:56.704Z,10.7
2022-09-05T12:07:56.691Z,10.9
2022-09-05T12:08:57.603Z,11
2022-09-05T12:09:56.778Z,10.2
2022-09-05T12:10:55.764Z,10.1
2022-09-05T12:11:56.691Z,10.1
2022-09-05T12:12:57.444Z,10.2
2022-09-05T12:13:56.695Z,10
2022-09-05T12:14:56.361Z,10
2022-09-05T12:16:08.567Z,10
2022-09-05T12:16:56.770Z,10
2022-09-05T12:17:56.680Z,9.9
2022-09-05T12:18:56.704Z,10.3
2022-09-05T12:19:57.366Z,10.2
2022-09-05T12:20:56.702Z,10.4
2022-09-05T12:21:57.414Z,10.2
2022-09-05T12:22:57.430Z,10.6
2022-09-05T12:24:54.956Z,10.4
2022-09-05T12:25:26.463Z,10.8
2022-09-05T12:27:38.513Z,10.3
2022-09-05T12:27:44.675Z,10.1
2022-09-05T12:28:28.883Z,9.7
2022-09-05T12:29:32.676Z,9.8
2022-09-05T12:29:59.982Z,9.9
2022-09-05T12:31:54.149Z,9.8
2022-09-05T12:32:50.327Z,9.8
2022-09-05T12:36:05.859Z,9.8
2022-09-05T12:36:07.312Z,9.8
2022-09-05T12:36:07.376Z,9.9
2022-09-05T12:36:12.759Z,9.7
2022-09-05T12:39:56.044Z,10
2022-09-05T12:40:03.099Z,9.8
2022-09-05T12:40:55.678Z,9.7
2022-09-05T12:41:34.386Z,10
2022-09-05T12:41:46.269Z,9.6
2022-09-05T12:42:14.591Z,9.6
2022-09-05T12:44:04.630Z,9.7
2022-09-05T12:44:39.589Z,9.6
2022-09-05T12:44:57.204Z,9.8
2022-09-05T12:45:56.732Z,9.9
2022-09-05T12:46:57.212Z,9.4
2022-09-05T12:47:57.084Z,9.3
2022-09-05T12:49:00.344Z,9.6
2022-09-05T12:49:56.722Z,10.3
2022-09-05T12:50:56.703Z,10.1
2022-09-05T12:51:56.717Z,9.7
2022-09-05T12:52:56.728Z,10.3
2022-09-05T12:53:57.150Z,10.7
2022-09-05T12:54:57.638Z,11
2022-09-05T12:56:28.230Z,10.8
2022-09-05T13:01:06.527Z,10.6
2022-09-05T13:02:54.933Z,10.9
2022-09-05T13:02:55.408Z,9.6
2022-09-05T13:02:56.142Z,9.4
2022-09-05T13:03:08.336Z,9.9
2022-09-05T13:03:11.348Z,9.5
2022-09-05T13:03:25.163Z,9.3
2022-09-05T13:04:16.117Z,9.1
2022-09-05T13:05:02.279Z,9.3
2022-09-05T13:05:57.092Z,9.2
2022-09-05T13:06:56.724Z,9.3
2022-09-05T13:07:56.925Z,9.3
2022-09-05T13:08:59.367Z,9.4
2022-09-05T13:10:44.577Z,9.4
2022-09-05T13:14:47.216Z,9.7
2022-09-05T13:14:54.647Z,10.9
2022-09-05T13:15:01.708Z,10.9
2022-09-05T13:15:03.003Z,10.5
2022-09-05T13:15:14.047Z,10.7
2022-09-05T13:15:56.830Z,10.6
2022-09-05T13:16:56.743Z,9.9
2022-09-05T13:17:57.345Z,10.4
2022-09-05T13:18:56.746Z,10.4
2022-09-05T13:19:57.289Z,10.5
2022-09-05T13:20:56.754Z,9.5
2022-09-05T13:21:57.184Z,9.2
2022-09-05T13:22:56.871Z,9.1
2022-09-05T13:23:56.722Z,9.8
2022-09-05T13:24:56.734Z,10.1
2022-09-05T13:25:56.723Z,10.2
2022-09-05T13:26:57.280Z,10.1
2022-09-05T13:27:56.827Z,10.2
2022-09-05T13:29:10.657Z,10.4
2022-09-05T13:30:03.766Z,10.3
2022-09-05T13:37:59.939Z,9.1
2022-09-05T13:38:08.258Z,9.9
2022-09-05T13:38:08.369Z,8.9
2022-09-05T13:38:11.511Z,8.9
2022-09-05T13:38:12.202Z,8.7
2022-09-05T13:38:14.033Z,8.8
2022-09-05T13:38:19.619Z,8.9
2022-09-05T13:38:29.359Z,9.3
2022-09-05T13:38:57.226Z,9.5
2022-09-05T13:39:57.334Z,9.3
2022-09-05T13:40:57.407Z,9.7
2022-09-05T13:41:56.741Z,9.8
2022-09-05T13:42:56.727Z,10.5
2022-09-05T13:44:00.577Z,10.4
2022-09-05T13:44:55.819Z,10.4
2022-09-05T13:45:57.033Z,10.3
2022-09-05T13:46:59.076Z,10.4
2022-09-05T13:47:57.253Z,10.3
2022-09-05T13:49:57.003Z,9.9
2022-09-05T13:50:57.031Z,9.8